Time;durP1;ratioP1;P1;durP2;ratioP2;P2;SDS_P1;SDS_P2;PMS_P1;PMS_P2;Temp;Humidity;BMP_temperature;BMP_pressure;BME280_temperature;BME280_humidity;BME280_pressure;Samples;Min_cycle;Max_cycle;Signal;HPM_P1;HPM_P2
2022/12/26 00:01:23;;;;;;;3.17;1.30;;;13.40;40.80;;;;;;5033076;28;20184;-74
2022/12/26 00:03:49;;;;;;;3.00;1.10;;;13.40;40.30;;;;;;5031813;28;20188;-75
2022/12/26 00:06:18;;;;;;;3.30;1.43;;;13.50;40.40;;;;;;5025410;28;20466;-74
2022/12/26 00:08:44;;;;;;;3.30;1.50;;;13.60;40.50;;;;;;5032693;28;20435;-74
2022/12/26 00:11:11;;;;;;;3.00;1.20;;;13.20;40.70;;;;;;5032652;28;20442;-74
2022/12/26 00:13:41;;;;;;;3.10;1.30;;;13.30;40.60;;;;;;5031078;28;20469;-75
2022/12/26 00:16:12;;;;;;;3.00;1.20;;;13.70;40.50;;;;;;5033329;28;20477;-75
2022/12/26 00:18:38;;;;;;;3.00;1.30;;;13.80;40.10;;;;;;5032720;28;20447;-73
2022/12/26 00:21:05;;;;;;;2.83;1.17;;;13.50;40.30;;;;;;5033433;28;20435;-75
2022/12/26 00:23:32;;;;;;;3.83;2.03;;;12.80;41.70;;;;;;5033604;28;20497;-75
2022/12/26 00:26:12;;;;;;;2.90;1.30;;;13.20;41.80;;;;;;5031484;28;20652;-75
2022/12/26 00:28:38;;;;;;;2.85;1.20;;;13.00;41.10;;;;;;5026613;28;20938;-75
2022/12/26 00:31:05;;;;;;;3.37;1.20;;;12.90;41.70;;;;;;5031562;28;20191;-75
2022/12/26 00:33:32;;;;;;;2.90;1.23;;;12.90;41.20;;;;;;5031102;28;20431;-75
2022/12/26 00:36:06;;;;;;;2.80;1.10;;;12.90;41.00;;;;;;5030556;28;20451;-74
2022/12/26 00:38:36;;;;;;;2.80;1.20;;;12.90;41.70;;;;;;5023130;28;21081;-75
2022/12/26 00:41:03;;;;;;;2.80;1.20;;;13.00;40.60;;;;;;5032090;28;20443;-75
2022/12/26 00:43:29;;;;;;;2.70;1.08;;;12.90;41.10;;;;;;5032812;28;20184;-73
2022/12/26 00:45:54;;;;;;;2.90;1.33;;;13.20;41.00;;;;;;5032132;28;20216;-75
2022/12/26 00:48:20;;;;;;;2.70;1.10;;;13.20;40.60;;;;;;5030583;28;20462;-75
2022/12/26 00:50:46;;;;;;;2.77;1.20;;;13.30;40.80;;;;;;5032011;28;20212;-76
2022/12/26 00:53:11;;;;;;;2.80;1.30;;;12.80;41.40;;;;;;5032873;28;20205;-74
2022/12/26 00:55:37;;;;;;;2.73;1.20;;;12.60;42.80;;;;;;5032621;28;20200;-75
2022/12/26 00:58:03;;;;;;;2.65;1.10;;;12.20;43.40;;;;;;5025960;28;20200;-74
2022/12/26 01:00:29;;;;;;;2.73;1.20;;;12.30;42.90;;;;;;5029656;28;20189;-74
2022/12/26 01:02:55;;;;;;;2.70;1.20;;;12.60;42.00;;;;;;5033766;28;20531;-75
2022/12/26 01:05:20;;;;;;;2.80;1.30;;;12.60;41.80;;;;;;5032192;28;20231;-74
2022/12/26 01:07:46;;;;;;;3.30;1.40;;;12.70;42.60;;;;;;5032091;28;20533;-74
2022/12/26 01:10:12;;;;;;;2.80;1.30;;;12.60;41.80;;;;;;5031807;28;20180;-74
2022/12/26 01:12:38;;;;;;;2.67;1.10;;;13.00;42.80;;;;;;5031260;28;20246;-74
2022/12/26 01:15:06;;;;;;;2.60;1.10;;;12.70;42.00;;;;;;5030521;28;20191;-75
2022/12/26 01:17:32;;;;;;;3.40;1.50;;;12.50;42.80;;;;;;5029624;28;20706;-73
2022/12/26 01:19:58;;;;;;;2.63;1.20;;;12.30;43.20;;;;;;5031938;28;20263;-75
2022/12/26 01:22:25;;;;;;;2.80;1.30;;;12.50;43.90;;;;;;5029349;28;20450;-75
2022/12/26 01:24:55;;;;;;;2.65;1.10;;;12.50;43.60;;;;;;5032108;28;20265;-74
2022/12/26 01:27:21;;;;;;;2.60;1.10;;;12.60;44.50;;;;;;5029323;28;20212;-75
2022/12/26 01:29:47;;;;;;;2.80;1.20;;;13.20;43.20;;;;;;5031675;28;20545;-75
2022/12/26 01:32:12;;;;;;;3.13;1.57;;;12.90;42.30;;;;;;5031793;28;20181;-75
2022/12/26 01:34:38;;;;;;;3.00;1.30;;;12.80;43.80;;;;;;5031924;28;20169;-75
2022/12/26 01:37:03;;;;;;;3.00;1.40;;;11.90;44.80;;;;;;5030204;28;20227;-74
2022/12/26 01:39:29;;;;;;;3.60;1.70;;;12.10;45.80;;;;;;5027742;28;20174;-74
2022/12/26 01:41:55;;;;;;;2.90;1.30;;;12.10;45.00;;;;;;5030355;28;20177;-75
2022/12/26 01:44:58;;;;;;;2.90;1.40;;;12.20;44.30;;;;;;5029612;28;20180;-75
2022/12/26 01:47:34;;;;;;;2.70;1.10;;;12.30;43.80;;;;;;5031185;28;20828;-72
2022/12/26 01:50:01;;;;;;;2.70;1.20;;;12.30;43.50;;;;;;5031488;28;20196;-74
2022/12/26 01:52:38;;;;;;;2.63;1.20;;;12.40;43.00;;;;;;5030437;28;20906;-75
2022/12/26 01:55:06;;;;;;;3.03;1.60;;;12.30;43.30;;;;;;5029412;28;20191;-76
2022/12/26 01:57:39;;;;;;;3.00;1.53;;;12.10;43.50;;;;;;5031852;28;20231;-75
2022/12/26 02:00:06;;;;;;;2.60;1.20;;;11.80;44.90;;;;;;5028233;28;20450;-75
2022/12/26 02:05:32;;;;;;;3.33;1.60;;;12.00;44.50;;;;;;5029757;28;20687;-74
2022/12/26 02:05:33;;;;;;;2.80;1.37;;;12.10;44.30;;;;;;5030636;28;20734;-74
2022/12/26 02:08:18;;;;;;;2.60;1.20;;;11.20;46.20;;;;;;5025698;28;20465;-75
2022/12/26 02:11:03;;;;;;;2.88;1.33;;;10.80;49.00;;;;;;5024759;28;20521;-73
2022/12/26 02:13:29;;;;;;;2.55;1.10;;;11.40;46.90;;;;;;5023549;28;20180;-74
2022/12/26 02:15:55;;;;;;;2.80;1.30;;;11.20;46.50;;;;;;5031820;28;20640;-75
2022/12/26 02:18:21;;;;;;;2.60;1.20;;;11.40;45.70;;;;;;5030865;28;20220;-74
2022/12/26 02:21:11;;;;;;;2.60;1.30;;;11.60;45.00;;;;;;5029189;28;20226;-74
2022/12/26 02:24:19;;;;;;;2.70;1.30;;;11.80;44.90;;;;;;5031725;28;20186;-74
2022/12/26 02:27:09;;;;;;;2.70;1.30;;;11.80;45.60;;;;;;5012312;28;20192;-75
2022/12/26 02:29:53;;;;;;;3.47;1.75;;;11.60;45.70;;;;;;5022667;28;20168;-74
2022/12/26 02:32:34;;;;;;;2.42;1.15;;;12.00;45.60;;;;;;5029722;28;20530;-74
2022/12/26 02:35:24;;;;;;;2.45;1.10;;;12.20;45.40;;;;;;5031763;28;20192;-74
2022/12/26 02:37:56;;;;;;;2.60;1.25;;;12.20;45.90;;;;;;5029741;28;20208;-75
2022/12/26 02:40:45;;;;;;;2.47;1.10;;;12.20;45.50;;;;;;5031121;28;20242;-73
2022/12/26 02:43:16;;;;;;;2.93;1.30;;;12.00;46.10;;;;;;5022136;28;20181;-74
2022/12/26 02:48:47;;;;;;;4.28;2.13;;;12.50;45.00;;;;;;5026719;28;20207;-74
2022/12/26 03:15:17;;;;;;;9.38;2.05;;;11.40;49.00;;;;;;5032991;28;20215;-75
2022/12/26 03:17:45;;;;;;;2.70;1.20;;;11.90;47.20;;;;;;5035249;28;20307;-75
2022/12/26 03:20:15;;;;;;;2.60;1.10;;;12.10;45.60;;;;;;5056924;22;20228;-70
2022/12/26 03:23:07;;;;;;;4.15;1.60;;;12.40;44.60;;;;;;5009404;28;20436;-71
2022/12/26 03:28:24;;;;;;;2.63;1.20;;;12.30;44.70;;;;;;5012447;28;20459;-70
2022/12/26 03:30:51;;;;;;;2.60;1.20;;;12.60;44.20;;;;;;4994215;28;20764;-71
2022/12/26 03:36:18;;;;;;;3.37;1.50;;;12.80;43.60;;;;;;4985697;28;20196;-71
2022/12/26 04:19:22;;;;;;;2.70;1.20;;;13.00;42.90;;;;;;4994776;28;20418;-70
2022/12/26 04:20:57;;;;;;;2.77;1.20;;;12.90;43.50;;;;;;4991665;28;21060;-70
2022/12/26 04:46:23;;;;;;;3.00;1.20;;;13.30;42.00;;;;;;4992674;28;20467;-70
2022/12/26 04:51:35;;;;;;;3.03;1.20;;;13.10;42.80;;;;;;4993799;28;20416;-71
2022/12/26 04:54:01;;;;;;;3.00;1.30;;;13.50;42.90;;;;;;4993017;28;20793;-70
2022/12/26 04:56:27;;;;;;;2.93;1.13;;;13.30;42.20;;;;;;4992654;28;20182;-70
2022/12/26 04:58:52;;;;;;;3.00;1.20;;;13.40;42.80;;;;;;4991766;28;20184;-71
2022/12/26 05:09:33;;;;;;;3.00;1.20;;;13.20;41.80;;;;;;4992243;28;20504;-71
2022/12/26 05:11:58;;;;;;;3.00;1.17;;;13.60;41.90;;;;;;4993140;28;20416;-70
2022/12/26 05:14:24;;;;;;;3.00;1.20;;;13.10;42.10;;;;;;4992207;28;20441;-70
2022/12/26 05:30:39;;;;;;;3.00;1.20;;;14.00;41.70;;;;;;4989039;28;21057;-71
2022/12/26 05:35:49;;;;;;;3.20;1.30;;;14.00;41.00;;;;;;4990743;28;20719;-71
2022/12/26 05:38:15;;;;;;;3.13;1.30;;;14.50;40.40;;;;;;4992276;28;20444;-71
2022/12/26 05:40:40;;;;;;;3.13;1.30;;;14.40;40.50;;;;;;4992513;28;20209;-71
2022/12/26 05:43:06;;;;;;;3.00;1.20;;;14.10;40.00;;;;;;4989752;28;20770;-70
2022/12/26 05:45:31;;;;;;;3.10;1.30;;;14.10;41.20;;;;;;4992240;28;20204;-71
2022/12/26 05:48:01;;;;;;;3.00;1.20;;;13.60;40.70;;;;;;4991055;28;20548;-71
2022/12/26 05:50:27;;;;;;;3.00;1.10;;;13.40;41.00;;;;;;4992441;28;20194;-70
2022/12/26 05:52:54;;;;;;;3.20;1.40;;;13.50;40.60;;;;;;4990397;28;20442;-71
2022/12/26 05:55:21;;;;;;;3.00;1.20;;;13.30;41.50;;;;;;4992245;28;21044;-71
2022/12/26 05:57:46;;;;;;;3.00;1.20;;;13.20;41.90;;;;;;4992540;28;20417;-70
2022/12/26 06:00:12;;;;;;;3.90;1.40;;;13.40;41.50;;;;;;4990995;28;20465;-70
2022/12/26 06:02:38;;;;;;;3.00;1.20;;;13.60;40.50;;;;;;4990651;28;20209;-71
2022/12/26 06:05:04;;;;;;;2.90;1.10;;;13.80;41.40;;;;;;4990998;28;20448;-71
2022/12/26 06:07:29;;;;;;;3.00;1.20;;;13.80;39.40;;;;;;4992393;28;20190;-71
2022/12/26 06:09:55;;;;;;;3.10;1.30;;;13.80;39.90;;;;;;4990740;28;20258;-71
2022/12/26 06:12:21;;;;;;;2.90;1.10;;;13.60;40.30;;;;;;4992019;28;20549;-71
2022/12/26 06:14:46;;;;;;;3.00;1.30;;;13.50;41.20;;;;;;4990176;28;20183;-71
2022/12/26 06:17:13;;;;;;;3.00;1.20;;;14.00;40.20;;;;;;4992257;28;20227;-70
2022/12/26 06:19:39;;;;;;;3.20;1.30;;;13.90;40.20;;;;;;4991428;28;20219;-71
2022/12/26 06:22:05;;;;;;;3.03;1.30;;;13.90;40.80;;;;;;4992106;28;20418;-71
2022/12/26 06:24:30;;;;;;;3.00;1.20;;;13.70;40.10;;;;;;4991709;28;20860;-71
2022/12/26 06:26:56;;;;;;;3.30;1.20;;;13.80;39.60;;;;;;4991563;28;20292;-71
2022/12/26 06:29:21;;;;;;;3.10;1.20;;;13.90;39.50;;;;;;4991926;28;20178;-70
2022/12/26 06:31:47;;;;;;;3.10;1.40;;;13.90;39.70;;;;;;4988862;28;20190;-69
2022/12/26 06:34:12;;;;;;;3.00;1.20;;;13.40;40.60;;;;;;4992189;28;20650;-71
2022/12/26 06:36:38;;;;;;;3.00;1.27;;;13.20;41.00;;;;;;4989892;28;20194;-71
2022/12/26 06:39:04;;;;;;;3.00;1.20;;;13.30;41.00;;;;;;4992363;28;20228;-70
2022/12/26 06:41:29;;;;;;;2.97;1.17;;;13.40;41.50;;;;;;4996481;28;20457;-70
2022/12/26 06:43:55;;;;;;;3.10;1.30;;;13.60;40.80;;;;;;4994626;28;20178;-70
2022/12/26 06:46:23;;;;;;;3.37;1.33;;;13.60;40.40;;;;;;4994772;28;20296;-70
2022/12/26 06:48:49;;;;;;;3.30;1.30;;;13.40;40.80;;;;;;4994381;28;20798;-71
2022/12/26 06:51:23;;;;;;;3.13;1.30;;;13.20;41.40;;;;;;4994122;28;20599;-71
2022/12/26 06:53:50;;;;;;;3.00;1.30;;;13.30;40.80;;;;;;4995663;28;20444;-71
2022/12/26 06:56:20;;;;;;;3.00;1.20;;;13.40;41.10;;;;;;4994645;28;20523;-71
2022/12/26 06:58:46;;;;;;;2.90;1.20;;;13.20;42.10;;;;;;4996526;28;20453;-71
2022/12/26 07:01:17;;;;;;;3.20;1.20;;;12.80;42.90;;;;;;4992870;28;20944;-71
2022/12/26 07:03:43;;;;;;;2.90;1.10;;;12.70;43.00;;;;;;4995312;28;20214;-70
2022/12/26 07:06:33;;;;;;;4.27;1.63;;;13.20;43.50;;;;;;4994342;28;20466;-70
2022/12/26 07:09:06;;;;;;;2.90;1.10;;;12.70;43.80;;;;;;4994536;28;20436;-71
2022/12/26 07:11:34;;;;;;;3.70;1.77;;;12.80;45.00;;;;;;4993658;28;20551;-71
2022/12/26 07:14:00;;;;;;;3.00;1.23;;;12.60;46.00;;;;;;4994106;28;20497;-71
2022/12/26 07:16:26;;;;;;;2.97;1.13;;;12.20;45.20;;;;;;4995040;28;20555;-71
2022/12/26 07:18:56;;;;;;;3.90;1.27;;;12.30;45.20;;;;;;4995316;28;20426;-71
2022/12/26 07:21:23;;;;;;;3.00;1.30;;;12.50;44.60;;;;;;4994727;28;20459;-70
2022/12/26 07:23:49;;;;;;;3.07;1.30;;;12.70;44.00;;;;;;4991638;28;20471;-71
2022/12/26 07:26:15;;;;;;;3.00;1.27;;;12.80;43.90;;;;;;4994783;28;20515;-71
2022/12/26 07:28:41;;;;;;;2.90;1.10;;;12.80;43.80;;;;;;4994961;28;21233;-71
2022/12/26 07:31:07;;;;;;;3.00;1.20;;;13.30;43.80;;;;;;4994093;28;20967;-70
2022/12/26 07:33:33;;;;;;;3.00;1.20;;;12.80;43.50;;;;;;4991779;28;20441;-71
2022/12/26 07:36:00;;;;;;;3.00;1.20;;;12.80;43.70;;;;;;4993957;28;20444;-71
2022/12/26 07:38:26;;;;;;;2.97;1.13;;;13.00;43.10;;;;;;4993743;28;20433;-72
2022/12/26 07:40:55;;;;;;;4.90;1.70;;;13.30;43.10;;;;;;4992914;28;20460;-71
2022/12/26 07:43:20;;;;;;;2.90;1.13;;;13.00;42.90;;;;;;4989917;28;20703;-72
2022/12/26 07:45:46;;;;;;;3.10;1.30;;;13.10;43.20;;;;;;4987769;28;20468;-72
2022/12/26 07:48:11;;;;;;;2.90;1.10;;;13.20;42.40;;;;;;4993539;28;20178;-71
2022/12/26 07:50:37;;;;;;;3.10;1.30;;;13.00;43.40;;;;;;4992761;28;20236;-72
2022/12/26 07:53:03;;;;;;;3.00;1.20;;;13.30;43.80;;;;;;4992947;28;20202;-72
2022/12/26 07:55:28;;;;;;;3.00;1.20;;;12.80;43.80;;;;;;4994536;28;20182;-72
2022/12/26 07:57:54;;;;;;;2.90;1.10;;;12.90;43.40;;;;;;4993375;28;20189;-72
2022/12/26 08:00:20;;;;;;;3.20;1.40;;;13.30;42.70;;;;;;5007729;28;20216;-72
2022/12/26 08:02:49;;;;;;;3.93;1.20;;;13.60;42.20;;;;;;4994268;28;20559;-72
2022/12/26 08:05:16;;;;;;;2.90;1.20;;;13.80;41.00;;;;;;4991481;28;20241;-72
2022/12/26 08:07:42;;;;;;;3.00;1.10;;;13.20;39.70;;;;;;4993748;28;20437;-71
2022/12/26 08:10:08;;;;;;;3.10;1.40;;;13.70;40.90;;;;;;4993799;28;20864;-71
2022/12/26 08:12:34;;;;;;;2.90;1.20;;;13.60;41.50;;;;;;4993673;28;20430;-71
2022/12/26 08:15:00;;;;;;;2.90;1.20;;;13.80;41.90;;;;;;4992693;28;20796;-72
2022/12/26 08:17:26;;;;;;;3.00;1.20;;;13.70;41.40;;;;;;4994122;28;20414;-71
2022/12/26 08:19:51;;;;;;;3.00;1.30;;;13.60;41.30;;;;;;4993023;28;20989;-72
2022/12/26 08:22:17;;;;;;;2.90;1.13;;;13.90;41.80;;;;;;4993000;28;20242;-71
2022/12/26 08:24:42;;;;;;;2.87;1.10;;;13.80;40.80;;;;;;4993804;28;20527;-72
2022/12/26 08:27:09;;;;;;;2.90;1.10;;;14.00;41.50;;;;;;4993953;28;20208;-72
2022/12/26 08:29:35;;;;;;;3.10;1.33;;;14.50;41.30;;;;;;4993897;28;20184;-71
2022/12/26 08:32:00;;;;;;;2.97;1.20;;;14.30;41.30;;;;;;4989539;28;20450;-72
2022/12/26 08:34:31;;;;;;;3.20;1.40;;;14.50;40.50;;;;;;4992460;28;20217;-72
2022/12/26 08:36:56;;;;;;;3.00;1.20;;;14.80;40.70;;;;;;4992795;28;20204;-72
2022/12/26 08:39:22;;;;;;;3.40;1.50;;;14.60;40.60;;;;;;4992661;28;20470;-72
2022/12/26 08:41:48;;;;;;;2.90;1.10;;;14.50;41.70;;;;;;4990563;28;20246;-72
2022/12/26 08:44:16;;;;;;;2.90;1.20;;;14.60;42.60;;;;;;4990062;28;20195;-72
2022/12/26 08:46:42;;;;;;;3.00;1.30;;;14.60;42.30;;;;;;4992552;28;20198;-72
2022/12/26 08:49:08;;;;;;;2.90;1.10;;;14.50;43.70;;;;;;4993217;28;20409;-72
2022/12/26 08:51:33;;;;;;;3.30;1.50;;;14.30;43.90;;;;;;4992575;28;20800;-71
2022/12/26 08:53:59;;;;;;;3.17;1.40;;;14.10;45.50;;;;;;4990727;28;20720;-72
2022/12/26 08:56:26;;;;;;;3.10;1.30;;;13.80;47.50;;;;;;4993298;28;20255;-72
2022/12/26 08:58:51;;;;;;;3.00;1.30;;;13.80;48.30;;;;;;4993135;28;20186;-72
2022/12/26 09:01:20;;;;;;;3.00;1.30;;;13.80;48.70;;;;;;4992758;28;20438;-71
2022/12/26 09:03:46;;;;;;;3.00;1.30;;;14.00;49.00;;;;;;4989409;28;20183;-72
2022/12/26 09:06:14;;;;;;;3.07;1.30;;;14.50;48.90;;;;;;4992237;28;20979;-72
2022/12/26 09:08:40;;;;;;;2.97;1.17;;;14.20;48.50;;;;;;4993052;28;20417;-72
2022/12/26 09:11:14;;;;;;;3.20;1.40;;;14.40;46.70;;;;;;4992747;28;20431;-72
2022/12/26 09:13:41;;;;;;;2.90;1.10;;;14.90;46.20;;;;;;4991349;28;20454;-72
2022/12/26 09:16:14;;;;;;;2.90;1.10;;;14.50;48.00;;;;;;4991325;28;20437;-72
2022/12/26 09:18:40;;;;;;;2.90;1.13;;;14.20;49.50;;;;;;4992709;28;20824;-72
2022/12/26 09:21:08;;;;;;;2.97;1.20;;;14.40;51.00;;;;;;4993089;28;20453;-72
2022/12/26 09:23:34;;;;;;;3.27;1.30;;;14.10;51.40;;;;;;4991094;28;20811;-72
2022/12/26 09:26:09;;;;;;;3.07;1.30;;;14.00;51.40;;;;;;4991636;28;20454;-72
2022/12/26 09:28:35;;;;;;;3.20;1.60;;;14.10;51.90;;;;;;4991517;28;20442;-72
2022/12/26 09:31:04;;;;;;;4.00;1.73;;;14.20;51.60;;;;;;4992539;28;20430;-72
2022/12/26 09:33:32;;;;;;;3.00;1.30;;;13.90;52.20;;;;;;4992628;28;20410;-72
2022/12/26 09:35:58;;;;;;;3.00;1.20;;;13.60;53.90;;;;;;4991824;28;20426;-72
2022/12/26 09:38:24;;;;;;;2.87;1.10;;;13.60;55.00;;;;;;4990543;28;20444;-72
2022/12/26 09:41:16;;;;;;;3.10;1.40;;;13.90;56.00;;;;;;4988876;28;20473;-72
2022/12/26 09:44:11;;;;;;;2.87;1.13;;;13.30;57.30;;;;;;4991635;28;20186;-72
2022/12/26 09:47:01;;;;;;;3.03;1.20;;;13.30;60.70;;;;;;4985192;28;20457;-72
2022/12/26 09:49:31;;;;;;;2.90;1.20;;;13.30;60.00;;;;;;4988151;28;20880;-72
2022/12/26 09:52:02;;;;;;;3.00;1.20;;;13.30;63.30;;;;;;4992429;28;20417;-72
2022/12/26 09:54:35;;;;;;;2.90;1.10;;;13.00;63.70;;;;;;4991994;28;20391;-72
2022/12/26 09:57:05;;;;;;;2.90;1.10;;;13.30;64.00;;;;;;4990793;28;20991;-72
2022/12/26 09:59:45;;;;;;;2.90;1.10;;;13.00;63.30;;;;;;4986923;28;20954;-72
2022/12/26 10:02:23;;;;;;;3.00;1.20;;;13.00;65.80;;;;;;4992071;28;20402;-72
2022/12/26 10:04:49;;;;;;;3.97;1.33;;;12.90;67.80;;;;;;4989255;28;20551;-72
2022/12/26 10:07:33;;;;;;;3.07;1.20;;;13.20;66.90;;;;;;4991581;28;20473;-73
2022/12/26 10:10:16;;;;;;;3.00;1.20;;;12.60;71.70;;;;;;4991149;28;20827;-72
2022/12/26 10:12:45;;;;;;;3.00;1.20;;;12.50;74.30;;;;;;4989375;28;20441;-74
2022/12/26 10:15:42;;;;;;;3.10;1.33;;;13.20;69.50;;;;;;4983673;28;20556;-74
2022/12/26 10:18:23;;;;;;;3.00;1.30;;;13.10;69.30;;;;;;4984480;28;20445;-74
2022/12/26 10:21:10;;;;;;;3.00;1.30;;;12.80;74.20;;;;;;4985479;28;20480;-74
2022/12/26 10:23:49;;;;;;;3.10;1.33;;;12.80;73.90;;;;;;4987289;28;20433;-80
2022/12/26 10:26:17;;;;;;;18.23;2.13;;;13.00;74.10;;;;;;4991733;28;20551;-76
2022/12/26 10:28:52;;;;;;;3.63;1.47;;;13.00;71.70;;;;;;4990412;28;20438;-77
2022/12/26 10:31:23;;;;;;;3.53;1.20;;;13.70;66.30;;;;;;4991603;28;20461;-75
2022/12/26 10:34:14;;;;;;;3.23;1.40;;;13.10;68.90;;;;;;4992559;28;21008;-76
2022/12/26 10:36:45;;;;;;;3.20;1.50;;;12.80;72.30;;;;;;4989989;28;20465;-76
2022/12/26 10:39:41;;;;;;;3.10;1.30;;;13.10;69.20;;;;;;4988803;28;20425;-77
2022/12/26 10:42:34;;;;;;;4.13;1.70;;;13.20;68.50;;;;;;4992233;28;20428;-76
2022/12/26 10:45:01;;;;;;;3.10;1.43;;;13.30;69.60;;;;;;4986198;28;20452;-77
2022/12/26 10:47:33;;;;;;;2.80;1.10;;;13.40;67.20;;;;;;4985192;28;20447;-74
2022/12/26 10:50:00;;;;;;;3.00;1.23;;;13.30;69.80;;;;;;4986719;28;20453;-75
2022/12/26 10:52:31;;;;;;;3.30;1.37;;;13.10;69.90;;;;;;4987342;28;20437;-75
2022/12/26 10:54:58;;;;;;;2.90;1.20;;;13.40;69.10;;;;;;4988021;28;20429;-75
2022/12/26 10:57:28;;;;;;;2.90;1.10;;;13.50;70.00;;;;;;5006406;28;20488;-74
2022/12/26 10:59:54;;;;;;;2.93;1.27;;;13.30;67.50;;;;;;4990406;28;20508;-76
2022/12/26 11:02:28;;;;;;;2.90;1.20;;;13.50;71.60;;;;;;4985045;28;20799;-75
2022/12/26 11:05:01;;;;;;;3.40;1.57;;;12.70;74.90;;;;;;4989938;28;20437;-74
2022/12/26 11:07:31;;;;;;;2.83;1.20;;;12.30;78.90;;;;;;4989870;28;20495;-76
2022/12/26 11:09:58;;;;;;;3.70;1.40;;;12.60;80.00;;;;;;4982370;28;20454;-76
2022/12/26 11:12:40;;;;;;;2.80;1.10;;;13.20;78.80;;;;;;4991433;28;20880;-76
2022/12/26 11:15:51;;;;;;;2.87;1.10;;;12.90;73.90;;;;;;4993632;28;20440;-78
2022/12/26 11:18:47;;;;;;;2.87;1.20;;;13.30;68.50;;;;;;4985745;28;20437;-77
2022/12/26 11:21:24;;;;;;;2.80;1.10;;;13.10;70.70;;;;;;4997432;28;21461;-77
2022/12/26 11:23:52;;;;;;;2.83;1.20;;;13.60;66.10;;;;;;4993182;28;20543;-78
2022/12/26 11:26:28;;;;;;;2.80;1.10;;;13.70;64.80;;;;;;5000567;28;20476;-80
2022/12/26 11:29:06;;;;;;;2.90;1.20;;;13.80;65.30;;;;;;4997307;28;20412;-78
2022/12/26 11:31:32;;;;;;;2.80;1.10;;;14.40;60.10;;;;;;4981712;28;20430;-75
2022/12/26 11:34:00;;;;;;;2.90;1.20;;;14.50;59.10;;;;;;4984224;28;20441;-76
2022/12/26 11:36:27;;;;;;;2.90;1.10;;;14.30;61.10;;;;;;5006356;28;21006;-75
2022/12/26 11:39:06;;;;;;;2.90;1.23;;;13.80;63.00;;;;;;4995064;28;20437;-77
2022/12/26 11:41:38;;;;;;;2.83;1.20;;;13.70;66.80;;;;;;4986992;28;20989;-77
2022/12/26 11:44:09;;;;;;;4.20;1.93;;;13.60;67.80;;;;;;4983429;28;21149;-77
2022/12/26 11:46:49;;;;;;;2.90;1.20;;;13.80;63.60;;;;;;5000401;28;20531;-76
2022/12/26 11:49:32;;;;;;;2.80;1.10;;;13.80;60.10;;;;;;4992124;28;20529;-76
2022/12/26 11:51:58;;;;;;;2.80;1.20;;;13.30;63.90;;;;;;4996624;28;20437;-81
2022/12/26 11:54:29;;;;;;;2.80;1.10;;;14.20;63.00;;;;;;4993265;28;20919;-82
2022/12/26 11:57:15;;;;;;;2.90;1.20;;;13.60;60.30;;;;;;5001202;28;20449;-82
2022/12/26 11:59:41;;;;;;;2.77;1.10;;;13.30;58.60;;;;;;5001738;28;20440;-82
2022/12/26 12:02:18;;;;;;;2.77;1.10;;;13.40;59.40;;;;;;5000223;28;20436;-81
2022/12/26 12:04:45;;;;;;;3.40;1.50;;;13.50;57.30;;;;;;4994024;28;20437;-76
2022/12/26 12:07:22;;;;;;;2.73;1.10;;;13.30;62.60;;;;;;4992128;28;20493;-77
2022/12/26 12:10:02;;;;;;;2.90;1.30;;;13.10;62.00;;;;;;4987207;28;20457;-77
2022/12/26 12:12:40;;;;;;;2.80;1.17;;;13.10;60.60;;;;;;4993762;28;20457;-75
2022/12/26 12:15:32;;;;;;;2.90;1.30;;;13.40;58.80;;;;;;4989764;28;20437;-77
2022/12/26 12:18:11;;;;;;;2.77;1.13;;;13.20;60.50;;;;;;4987541;28;20886;-75
2022/12/26 12:21:06;;;;;;;2.70;1.10;;;13.60;54.70;;;;;;4985311;28;20476;-76
2022/12/26 12:23:55;;;;;;;2.97;1.27;;;13.40;57.00;;;;;;4983645;28;20440;-75
2022/12/26 12:26:58;;;;;;;2.73;1.10;;;12.90;59.40;;;;;;4993050;28;20461;-75
2022/12/26 12:29:50;;;;;;;2.87;1.10;;;12.50;61.50;;;;;;4966287;28;20525;-75
2022/12/26 12:32:37;;;;;;;2.73;1.10;;;12.50;60.80;;;;;;4992047;28;20425;-75
2022/12/26 12:35:33;;;;;;;2.80;1.13;;;13.00;58.90;;;;;;4971491;28;20487;-75
2022/12/26 12:38:21;;;;;;;2.70;1.10;;;13.10;57.70;;;;;;4989586;28;20425;-75
2022/12/26 12:41:09;;;;;;;2.77;1.10;;;13.70;58.00;;;;;;4984716;28;20457;-75
2022/12/26 12:43:53;;;;;;;2.93;1.20;;;13.40;56.70;;;;;;4991216;28;20994;-75
2022/12/26 12:46:22;;;;;;;2.80;1.20;;;13.50;57.30;;;;;;4993698;28;20877;-75
2022/12/26 12:48:53;;;;;;;2.77;1.10;;;13.20;55.90;;;;;;4993545;28;20468;-76
2022/12/26 12:51:30;;;;;;;2.87;1.20;;;13.50;53.60;;;;;;4990417;28;20586;-76
2022/12/26 12:53:56;;;;;;;2.80;1.13;;;13.60;53.20;;;;;;4992012;28;20569;-76
2022/12/26 12:56:30;;;;;;;2.87;1.23;;;13.50;52.60;;;;;;4993177;28;20426;-74
2022/12/26 12:59:20;;;;;;;3.77;1.40;;;13.70;52.00;;;;;;4992593;28;20644;-76
2022/12/26 13:01:49;;;;;;;2.80;1.10;;;13.60;52.50;;;;;;4989430;28;20441;-74
2022/12/26 13:04:41;;;;;;;2.80;1.10;;;13.40;53.10;;;;;;4991017;28;20617;-74
2022/12/26 13:07:20;;;;;;;2.80;1.10;;;13.50;51.00;;;;;;4989758;28;20462;-76
2022/12/26 13:09:58;;;;;;;3.00;1.40;;;13.70;52.20;;;;;;4993410;28;20750;-76
2022/12/26 13:12:29;;;;;;;2.83;1.10;;;13.80;53.30;;;;;;4996254;28;20430;-76
2022/12/26 13:15:13;;;;;;;2.97;1.30;;;13.60;51.50;;;;;;4992894;28;20491;-76
2022/12/26 13:17:48;;;;;;;3.00;1.23;;;13.90;48.80;;;;;;4985395;28;20425;-77
2022/12/26 13:20:37;;;;;;;2.90;1.20;;;13.90;50.60;;;;;;4986969;28;20480;-73
2022/12/26 13:26:21;;;;;;;3.00;1.20;;;13.50;51.00;;;;;;4993321;28;20475;-76
2022/12/26 13:29:11;;;;;;;3.00;1.20;;;13.40;50.30;;;;;;4993612;28;20436;-76
2022/12/26 13:31:39;;;;;;;2.90;1.10;;;13.30;49.80;;;;;;4990366;28;20424;-76
2022/12/26 13:34:09;;;;;;;3.00;1.20;;;13.70;49.30;;;;;;4991675;28;20436;-76
2022/12/26 13:36:45;;;;;;;3.00;1.30;;;13.60;49.70;;;;;;4993992;28;20430;-75
2022/12/26 13:39:22;;;;;;;2.93;1.13;;;13.80;48.30;;;;;;4987124;28;20445;-76
2022/12/26 13:44:39;;;;;;;2.90;1.10;;;13.20;47.80;;;;;;4983404;28;20421;-72
2022/12/26 13:47:05;;;;;;;2.90;1.10;;;12.80;48.20;;;;;;4988595;28;20469;-71
2022/12/26 13:49:38;;;;;;;3.00;1.20;;;13.30;47.60;;;;;;4993337;28;20589;-72
2022/12/26 13:52:10;;;;;;;2.90;1.10;;;13.50;46.90;;;;;;4990509;28;20462;-72
2022/12/26 13:55:05;;;;;;;3.00;1.30;;;13.50;47.70;;;;;;4990627;28;20426;-72
2022/12/26 13:57:38;;;;;;;3.00;1.20;;;13.20;48.20;;;;;;4972316;28;20440;-71
2022/12/26 14:00:14;;;;;;;3.00;1.30;;;13.30;47.50;;;;;;4995914;28;20812;-73
2022/12/26 14:03:04;;;;;;;2.90;1.10;;;13.20;48.10;;;;;;4985827;28;20437;-73
2022/12/26 14:05:40;;;;;;;2.83;1.07;;;13.70;46.10;;;;;;4986140;28;20465;-73
2022/12/26 14:08:36;;;;;;;2.90;1.17;;;13.10;47.70;;;;;;4994071;28;20398;-73
2022/12/26 14:11:08;;;;;;;2.90;1.13;;;13.00;47.90;;;;;;4994473;28;20436;-73
2022/12/26 14:14:02;;;;;;;2.90;1.10;;;13.30;47.80;;;;;;4989356;28;20522;-73
2022/12/26 14:16:46;;;;;;;2.90;1.10;;;13.60;45.50;;;;;;5005645;28;20492;-72
2022/12/26 14:19:21;;;;;;;2.90;1.07;;;13.60;46.00;;;;;;4991806;28;20856;-72
2022/12/26 14:22:10;;;;;;;3.10;1.30;;;13.10;47.10;;;;;;4993808;28;20402;-72
2022/12/26 14:24:45;;;;;;;2.93;1.10;;;12.90;46.60;;;;;;4990411;28;20824;-71
2022/12/26 14:27:33;;;;;;;2.90;1.20;;;13.00;48.20;;;;;;4993156;28;20457;-74
2022/12/26 14:30:19;;;;;;;2.90;1.20;;;13.60;45.80;;;;;;4994543;28;20446;-76
2022/12/26 14:33:12;;;;;;;4.00;1.97;;;13.40;45.40;;;;;;4995214;28;20404;-74
2022/12/26 14:35:45;;;;;;;3.00;1.20;;;13.40;44.90;;;;;;4992065;28;20431;-73
2022/12/26 14:38:35;;;;;;;2.90;1.10;;;13.00;47.80;;;;;;4995597;28;20436;-73
2022/12/26 14:43:09;;;;;;;3.00;1.30;;;12.90;46.50;;;;;;4999558;28;20526;-73
2022/12/26 14:44:18;;;;;;;3.00;1.20;;;13.00;46.00;;;;;;4990884;28;20451;-75
2022/12/26 14:46:47;;;;;;;2.90;1.20;;;12.90;46.70;;;;;;4987103;28;20493;-73
2022/12/26 14:49:21;;;;;;;2.97;1.17;;;13.20;46.70;;;;;;4987798;28;20487;-75
2022/12/26 14:51:47;;;;;;;3.00;1.30;;;13.00;45.20;;;;;;4986666;28;20435;-76
2022/12/26 14:54:22;;;;;;;3.00;1.30;;;13.30;45.00;;;;;;4990228;28;20433;-75
2022/12/26 14:56:51;;;;;;;3.40;1.30;;;13.30;45.10;;;;;;4992637;28;20439;-76
2022/12/26 14:59:34;;;;;;;2.90;1.10;;;13.70;43.70;;;;;;4992335;28;20783;-77
2022/12/26 15:02:26;;;;;;;3.00;1.20;;;13.60;43.00;;;;;;4990906;28;20447;-75
2022/12/26 15:05:21;;;;;;;2.90;1.10;;;13.20;44.20;;;;;;4994910;28;20933;-78
2022/12/26 15:08:24;;;;;;;2.90;1.10;;;13.10;45.20;;;;;;4997224;28;20497;-75
2022/12/26 15:11:08;;;;;;;3.07;1.30;;;13.20;44.10;;;;;;5006615;28;20449;-75
2022/12/26 15:13:54;;;;;;;3.00;1.20;;;13.10;44.90;;;;;;5007358;28;20430;-75
2022/12/26 15:16:32;;;;;;;2.87;1.10;;;13.50;43.20;;;;;;5004075;28;20450;-75
2022/12/26 15:19:32;;;;;;;2.90;1.20;;;13.30;43.40;;;;;;4999079;28;20497;-76
2022/12/26 15:22:00;;;;;;;2.90;1.10;;;13.40;43.70;;;;;;4999744;28;20481;-75
2022/12/26 15:24:45;;;;;;;3.00;1.20;;;13.30;43.40;;;;;;4998549;28;20416;-75
2022/12/26 15:27:29;;;;;;;2.93;1.10;;;13.50;43.00;;;;;;4996969;28;20893;-76